sensor_id;sensor_type;location;lat;lon;timestamp;P1;durP1;ratioP1;P2;durP2;ratioP2
57025;SDS011;43961;52.940;6.834;2023-04-16T00:01:38;106.25;;;55.38;;
57025;SDS011;43961;52.940;6.834;2023-04-16T00:04:04;98.78;;;51.88;;
57025;SDS011;43961;52.940;6.834;2023-04-16T00:06:30;87.72;;;49.47;;
57025;SDS011;43961;52.940;6.834;2023-04-16T00:08:56;100.68;;;54.08;;
57025;SDS011;43961;52.940;6.834;2023-04-16T00:11:21;102.97;;;53.20;;
57025;SDS011;43961;52.940;6.834;2023-04-16T00:13:47;103.85;;;52.30;;
57025;SDS011;43961;52.940;6.834;2023-04-16T00:16:13;109.15;;;54.58;;
57025;SDS011;43961;52.940;6.834;2023-04-16T00:18:39;102.63;;;56.60;;
57025;SDS011;43961;52.940;6.834;2023-04-16T00:21:05;104.50;;;53.80;;
57025;SDS011;43961;52.940;6.834;2023-04-16T00:23:31;102.47;;;52.05;;
57025;SDS011;43961;52.940;6.834;2023-04-16T00:25:57;110.22;;;54.25;;
57025;SDS011;43961;52.940;6.834;2023-04-16T00:28:24;94.70;;;50.83;;
57025;SDS011;43961;52.940;6.834;2023-04-16T00:30:51;94.82;;;51.17;;
57025;SDS011;43961;52.940;6.834;2023-04-16T00:33:17;95.38;;;52.45;;
57025;SDS011;43961;52.940;6.834;2023-04-16T00:35:46;106.40;;;55.08;;
57025;SDS011;43961;52.940;6.834;2023-04-16T00:38:12;90.22;;;48.55;;
57025;SDS011;43961;52.940;6.834;2023-04-16T00:40:38;98.13;;;46.42;;
57025;SDS011;43961;52.940;6.834;2023-04-16T00:43:04;92.68;;;47.90;;
57025;SDS011;43961;52.940;6.834;2023-04-16T00:45:30;101.22;;;49.83;;
57025;SDS011;43961;52.940;6.834;2023-04-16T00:47:57;90.70;;;50.15;;
57025;SDS011;43961;52.940;6.834;2023-04-16T00:50:23;93.55;;;48.25;;
57025;SDS011;43961;52.940;6.834;2023-04-16T00:52:49;100.15;;;47.72;;
57025;SDS011;43961;52.940;6.834;2023-04-16T00:55:15;101.63;;;48.67;;
57025;SDS011;43961;52.940;6.834;2023-04-16T00:57:43;98.53;;;49.35;;
57025;SDS011;43961;52.940;6.834;2023-04-16T01:00:09;95.45;;;51.92;;
57025;SDS011;43961;52.940;6.834;2023-04-16T01:02:36;109.47;;;49.38;;
57025;SDS011;43961;52.940;6.834;2023-04-16T01:05:02;90.95;;;48.95;;
57025;SDS011;43961;52.940;6.834;2023-04-16T01:07:29;96.68;;;50.92;;
57025;SDS011;43961;52.940;6.834;2023-04-16T01:09:55;104.38;;;48.72;;
57025;SDS011;43961;52.940;6.834;2023-04-16T01:12:21;100.03;;;50.58;;
57025;SDS011;43961;52.940;6.834;2023-04-16T01:14:47;95.35;;;50.50;;
57025;SDS011;43961;52.940;6.834;2023-04-16T01:17:13;90.88;;;51.05;;
57025;SDS011;43961;52.940;6.834;2023-04-16T01:19:39;102.68;;;52.83;;
57025;SDS011;43961;52.940;6.834;2023-04-16T01:22:04;99.07;;;53.60;;
57025;SDS011;43961;52.940;6.834;2023-04-16T01:24:30;112.65;;;54.78;;
57025;SDS011;43961;52.940;6.834;2023-04-16T01:26:57;97.07;;;53.78;;
57025;SDS011;43961;52.940;6.834;2023-04-16T01:29:23;112.32;;;56.88;;
57025;SDS011;43961;52.940;6.834;2023-04-16T01:31:49;95.00;;;54.60;;
57025;SDS011;43961;52.940;6.834;2023-04-16T01:34:15;96.53;;;53.05;;
57025;SDS011;43961;52.940;6.834;2023-04-16T01:36:41;75.35;;;49.40;;
57025;SDS011;43961;52.940;6.834;2023-04-16T01:39:07;93.28;;;52.83;;
57025;SDS011;43961;52.940;6.834;2023-04-16T01:41:35;102.50;;;56.08;;
57025;SDS011;43961;52.940;6.834;2023-04-16T01:44:01;93.05;;;53.95;;
57025;SDS011;43961;52.940;6.834;2023-04-16T01:46:27;97.78;;;54.78;;
57025;SDS011;43961;52.940;6.834;2023-04-16T01:48:55;112.65;;;62.35;;
57025;SDS011;43961;52.940;6.834;2023-04-16T01:51:25;92.18;;;55.38;;
57025;SDS011;43961;52.940;6.834;2023-04-16T01:53:52;92.10;;;53.95;;
57025;SDS011;43961;52.940;6.834;2023-04-16T01:56:18;112.05;;;59.25;;
57025;SDS011;43961;52.940;6.834;2023-04-16T01:58:44;96.38;;;53.30;;
57025;SDS011;43961;52.940;6.834;2023-04-16T02:01:11;127.70;;;65.40;;
57025;SDS011;43961;52.940;6.834;2023-04-16T02:03:37;107.55;;;59.15;;
57025;SDS011;43961;52.940;6.834;2023-04-16T02:06:03;107.40;;;56.88;;
57025;SDS011;43961;52.940;6.834;2023-04-16T02:08:29;109.32;;;59.33;;
57025;SDS011;43961;52.940;6.834;2023-04-16T02:10:55;109.97;;;58.38;;
57025;SDS011;43961;52.940;6.834;2023-04-16T02:13:23;99.43;;;58.80;;
57025;SDS011;43961;52.940;6.834;2023-04-16T02:15:50;100.55;;;59.35;;
57025;SDS011;43961;52.940;6.834;2023-04-16T02:18:16;103.57;;;58.35;;
57025;SDS011;43961;52.940;6.834;2023-04-16T02:20:44;97.97;;;59.70;;
57025;SDS011;43961;52.940;6.834;2023-04-16T02:23:11;112.88;;;63.45;;
57025;SDS011;43961;52.940;6.834;2023-04-16T02:25:42;113.65;;;60.95;;
57025;SDS011;43961;52.940;6.834;2023-04-16T02:28:10;95.28;;;54.05;;
57025;SDS011;43961;52.940;6.834;2023-04-16T02:30:39;90.03;;;53.92;;
57025;SDS011;43961;52.940;6.834;2023-04-16T02:33:05;113.43;;;58.35;;
57025;SDS011;43961;52.940;6.834;2023-04-16T02:35:32;104.68;;;56.30;;
57025;SDS011;43961;52.940;6.834;2023-04-16T02:37:59;109.57;;;60.88;;
57025;SDS011;43961;52.940;6.834;2023-04-16T02:40:25;98.75;;;55.75;;
57025;SDS011;43961;52.940;6.834;2023-04-16T02:42:51;112.88;;;61.00;;
57025;SDS011;43961;52.940;6.834;2023-04-16T02:45:17;120.47;;;62.65;;
57025;SDS011;43961;52.940;6.834;2023-04-16T02:47:45;93.55;;;56.28;;
57025;SDS011;43961;52.940;6.834;2023-04-16T02:50:10;108.03;;;62.08;;
57025;SDS011;43961;52.940;6.834;2023-04-16T02:52:36;97.95;;;59.20;;
57025;SDS011;43961;52.940;6.834;2023-04-16T02:55:02;92.40;;;56.72;;
57025;SDS011;43961;52.940;6.834;2023-04-16T02:57:28;100.88;;;57.60;;
57025;SDS011;43961;52.940;6.834;2023-04-16T02:59:54;107.35;;;59.42;;
57025;SDS011;43961;52.940;6.834;2023-04-16T03:02:20;106.63;;;57.33;;
57025;SDS011;43961;52.940;6.834;2023-04-16T03:04:45;99.10;;;56.83;;
57025;SDS011;43961;52.940;6.834;2023-04-16T03:07:11;114.13;;;59.25;;
57025;SDS011;43961;52.940;6.834;2023-04-16T03:09:37;99.25;;;55.72;;
57025;SDS011;43961;52.940;6.834;2023-04-16T03:12:03;90.28;;;54.75;;
57025;SDS011;43961;52.940;6.834;2023-04-16T03:14:30;88.57;;;53.47;;
57025;SDS011;43961;52.940;6.834;2023-04-16T03:16:56;92.18;;;56.75;;
57025;SDS011;43961;52.940;6.834;2023-04-16T03:19:22;99.35;;;52.08;;
57025;SDS011;43961;52.940;6.834;2023-04-16T03:21:48;88.43;;;53.20;;
57025;SDS011;43961;52.940;6.834;2023-04-16T03:24:14;83.05;;;51.15;;
57025;SDS011;43961;52.940;6.834;2023-04-16T03:26:40;80.88;;;51.75;;
57025;SDS011;43961;52.940;6.834;2023-04-16T03:29:05;84.05;;;52.97;;
57025;SDS011;43961;52.940;6.834;2023-04-16T03:31:31;79.90;;;50.00;;
57025;SDS011;43961;52.940;6.834;2023-04-16T03:33:57;86.97;;;51.72;;
57025;SDS011;43961;52.940;6.834;2023-04-16T03:36:23;87.13;;;53.65;;
57025;SDS011;43961;52.940;6.834;2023-04-16T03:38:49;87.20;;;52.35;;
57025;SDS011;43961;52.940;6.834;2023-04-16T03:41:16;86.10;;;50.53;;
57025;SDS011;43961;52.940;6.834;2023-04-16T03:43:41;85.15;;;53.55;;
57025;SDS011;43961;52.940;6.834;2023-04-16T03:46:07;93.93;;;54.42;;
57025;SDS011;43961;52.940;6.834;2023-04-16T03:48:32;132.10;;;62.05;;
57025;SDS011;43961;52.940;6.834;2023-04-16T03:50:58;98.10;;;57.08;;
57025;SDS011;43961;52.940;6.834;2023-04-16T03:53:24;87.40;;;49.80;;
57025;SDS011;43961;52.940;6.834;2023-04-16T03:55:50;84.82;;;51.08;;
57025;SDS011;43961;52.940;6.834;2023-04-16T03:58:16;112.20;;;55.72;;
57025;SDS011;43961;52.940;6.834;2023-04-16T04:00:42;96.57;;;53.50;;
57025;SDS011;43961;52.940;6.834;2023-04-16T04:03:11;84.22;;;51.60;;
57025;SDS011;43961;52.940;6.834;2023-04-16T04:05:38;96.60;;;55.50;;
57025;SDS011;43961;52.940;6.834;2023-04-16T04:08:04;114.28;;;56.38;;
57025;SDS011;43961;52.940;6.834;2023-04-16T04:10:34;105.15;;;55.85;;
57025;SDS011;43961;52.940;6.834;2023-04-16T04:13:04;120.70;;;60.67;;
57025;SDS011;43961;52.940;6.834;2023-04-16T04:15:31;100.57;;;53.88;;
57025;SDS011;43961;52.940;6.834;2023-04-16T04:17:56;104.68;;;54.90;;
57025;SDS011;43961;52.940;6.834;2023-04-16T04:20:22;107.22;;;54.97;;
57025;SDS011;43961;52.940;6.834;2023-04-16T04:22:48;102.43;;;54.88;;
57025;SDS011;43961;52.940;6.834;2023-04-16T04:25:15;96.60;;;52.92;;
57025;SDS011;43961;52.940;6.834;2023-04-16T04:27:41;96.93;;;55.42;;
57025;SDS011;43961;52.940;6.834;2023-04-16T04:30:07;111.47;;;55.50;;
57025;SDS011;43961;52.940;6.834;2023-04-16T04:32:33;118.55;;;64.03;;
57025;SDS011;43961;52.940;6.834;2023-04-16T04:34:59;112.90;;;57.53;;
57025;SDS011;43961;52.940;6.834;2023-04-16T04:37:26;116.93;;;57.88;;
57025;SDS011;43961;52.940;6.834;2023-04-16T04:39:51;103.13;;;56.85;;
57025;SDS011;43961;52.940;6.834;2023-04-16T04:42:17;108.97;;;56.17;;
57025;SDS011;43961;52.940;6.834;2023-04-16T04:44:44;100.55;;;54.33;;
57025;SDS011;43961;52.940;6.834;2023-04-16T04:47:10;109.90;;;55.83;;
57025;SDS011;43961;52.940;6.834;2023-04-16T04:49:35;97.63;;;56.60;;
57025;SDS011;43961;52.940;6.834;2023-04-16T04:52:01;105.15;;;53.65;;
57025;SDS011;43961;52.940;6.834;2023-04-16T04:54:27;104.28;;;55.10;;
57025;SDS011;43961;52.940;6.834;2023-04-16T04:56:54;97.45;;;51.15;;
57025;SDS011;43961;52.940;6.834;2023-04-16T04:59:20;91.57;;;50.17;;
57025;SDS011;43961;52.940;6.834;2023-04-16T05:01:47;102.75;;;53.15;;
57025;SDS011;43961;52.940;6.834;2023-04-16T05:04:13;87.38;;;52.45;;
57025;SDS011;43961;52.940;6.834;2023-04-16T05:06:38;95.97;;;54.53;;
57025;SDS011;43961;52.940;6.834;2023-04-16T05:09:04;80.80;;;51.17;;
57025;SDS011;43961;52.940;6.834;2023-04-16T05:11:29;88.90;;;49.25;;
57025;SDS011;43961;52.940;6.834;2023-04-16T05:13:55;94.03;;;47.50;;
57025;SDS011;43961;52.940;6.834;2023-04-16T05:16:21;77.60;;;48.30;;
57025;SDS011;43961;52.940;6.834;2023-04-16T05:18:46;102.45;;;53.13;;
57025;SDS011;43961;52.940;6.834;2023-04-16T05:21:12;96.82;;;50.38;;
57025;SDS011;43961;52.940;6.834;2023-04-16T05:23:38;87.95;;;46.45;;
57025;SDS011;43961;52.940;6.834;2023-04-16T05:26:03;89.90;;;49.88;;
57025;SDS011;43961;52.940;6.834;2023-04-16T05:28:29;85.80;;;48.08;;
57025;SDS011;43961;52.940;6.834;2023-04-16T05:30:55;84.53;;;46.72;;
57025;SDS011;43961;52.940;6.834;2023-04-16T05:33:20;83.47;;;46.65;;
57025;SDS011;43961;52.940;6.834;2023-04-16T05:35:46;88.07;;;48.10;;
57025;SDS011;43961;52.940;6.834;2023-04-16T05:38:12;84.20;;;48.78;;
57025;SDS011;43961;52.940;6.834;2023-04-16T05:40:37;81.90;;;46.47;;
57025;SDS011;43961;52.940;6.834;2023-04-16T05:43:03;98.15;;;50.53;;
57025;SDS011;43961;52.940;6.834;2023-04-16T05:45:29;89.47;;;48.92;;
57025;SDS011;43961;52.940;6.834;2023-04-16T05:47:57;89.97;;;49.28;;
57025;SDS011;43961;52.940;6.834;2023-04-16T05:50:23;74.68;;;46.40;;
57025;SDS011;43961;52.940;6.834;2023-04-16T05:52:48;82.82;;;45.15;;
57025;SDS011;43961;52.940;6.834;2023-04-16T05:55:14;83.85;;;46.65;;
57025;SDS011;43961;52.940;6.834;2023-04-16T05:57:39;81.90;;;47.55;;
57025;SDS011;43961;52.940;6.834;2023-04-16T06:00:05;78.13;;;46.20;;
57025;SDS011;43961;52.940;6.834;2023-04-16T06:02:31;75.85;;;47.10;;
57025;SDS011;43961;52.940;6.834;2023-04-16T06:04:57;82.82;;;45.85;;
57025;SDS011;43961;52.940;6.834;2023-04-16T06:07:24;82.18;;;45.83;;
57025;SDS011;43961;52.940;6.834;2023-04-16T06:09:51;75.20;;;44.63;;
57025;SDS011;43961;52.940;6.834;2023-04-16T06:12:16;89.75;;;45.03;;
57025;SDS011;43961;52.940;6.834;2023-04-16T06:14:42;85.70;;;46.00;;
57025;SDS011;43961;52.940;6.834;2023-04-16T06:17:08;76.07;;;45.33;;
57025;SDS011;43961;52.940;6.834;2023-04-16T06:19:33;75.43;;;45.35;;
57025;SDS011;43961;52.940;6.834;2023-04-16T06:21:59;84.70;;;48.63;;
57025;SDS011;43961;52.940;6.834;2023-04-16T06:24:24;108.63;;;51.05;;
57025;SDS011;43961;52.940;6.834;2023-04-16T06:26:50;92.47;;;48.03;;
57025;SDS011;43961;52.940;6.834;2023-04-16T06:29:16;76.47;;;47.78;;
57025;SDS011;43961;52.940;6.834;2023-04-16T06:31:41;91.90;;;50.25;;
57025;SDS011;43961;52.940;6.834;2023-04-16T06:34:07;90.53;;;49.28;;
57025;SDS011;43961;52.940;6.834;2023-04-16T06:36:33;88.32;;;51.67;;
57025;SDS011;43961;52.940;6.834;2023-04-16T06:38:59;100.93;;;54.30;;
57025;SDS011;43961;52.940;6.834;2023-04-16T06:41:24;79.53;;;48.83;;
57025;SDS011;43961;52.940;6.834;2023-04-16T06:43:51;88.90;;;50.47;;
57025;SDS011;43961;52.940;6.834;2023-04-16T06:46:16;90.95;;;51.45;;
57025;SDS011;43961;52.940;6.834;2023-04-16T06:48:42;94.18;;;54.65;;
57025;SDS011;43961;52.940;6.834;2023-04-16T06:51:08;91.50;;;52.20;;
57025;SDS011;43961;52.940;6.834;2023-04-16T06:53:35;85.57;;;50.15;;
57025;SDS011;43961;52.940;6.834;2023-04-16T06:56:01;89.72;;;54.83;;
57025;SDS011;43961;52.940;6.834;2023-04-16T06:58:27;97.60;;;53.33;;
57025;SDS011;43961;52.940;6.834;2023-04-16T07:00:53;82.47;;;50.55;;
57025;SDS011;43961;52.940;6.834;2023-04-16T07:03:18;86.07;;;49.05;;
57025;SDS011;43961;52.940;6.834;2023-04-16T07:05:44;85.30;;;49.80;;
57025;SDS011;43961;52.940;6.834;2023-04-16T07:08:10;89.05;;;52.22;;
57025;SDS011;43961;52.940;6.834;2023-04-16T07:10:35;99.93;;;52.72;;
57025;SDS011;43961;52.940;6.834;2023-04-16T07:13:01;88.30;;;48.78;;
57025;SDS011;43961;52.940;6.834;2023-04-16T07:15:27;83.93;;;51.25;;
57025;SDS011;43961;52.940;6.834;2023-04-16T07:17:53;87.07;;;48.50;;
57025;SDS011;43961;52.940;6.834;2023-04-16T07:20:19;86.60;;;47.60;;
57025;SDS011;43961;52.940;6.834;2023-04-16T07:22:45;93.47;;;48.38;;
57025;SDS011;43961;52.940;6.834;2023-04-16T07:25:11;91.30;;;51.50;;
57025;SDS011;43961;52.940;6.834;2023-04-16T07:27:36;72.47;;;45.40;;
57025;SDS011;43961;52.940;6.834;2023-04-16T07:30:02;85.47;;;47.28;;
57025;SDS011;43961;52.940;6.834;2023-04-16T07:32:28;90.90;;;46.70;;
57025;SDS011;43961;52.940;6.834;2023-04-16T07:34:54;97.80;;;50.35;;
57025;SDS011;43961;52.940;6.834;2023-04-16T07:37:20;86.85;;;50.88;;
57025;SDS011;43961;52.940;6.834;2023-04-16T07:39:46;94.35;;;50.08;;
57025;SDS011;43961;52.940;6.834;2023-04-16T07:42:13;84.28;;;48.85;;
57025;SDS011;43961;52.940;6.834;2023-04-16T07:44:39;86.63;;;51.35;;
57025;SDS011;43961;52.940;6.834;2023-04-16T07:47:05;87.68;;;50.17;;
57025;SDS011;43961;52.940;6.834;2023-04-16T07:49:30;74.28;;;45.05;;
57025;SDS011;43961;52.940;6.834;2023-04-16T07:51:56;82.55;;;48.85;;
57025;SDS011;43961;52.940;6.834;2023-04-16T07:54:22;72.70;;;45.42;;
57025;SDS011;43961;52.940;6.834;2023-04-16T07:56:47;76.97;;;48.03;;
57025;SDS011;43961;52.940;6.834;2023-04-16T07:59:13;66.30;;;42.38;;
57025;SDS011;43961;52.940;6.834;2023-04-16T08:01:38;78.60;;;45.53;;
57025;SDS011;43961;52.940;6.834;2023-04-16T08:04:04;82.13;;;46.17;;
57025;SDS011;43961;52.940;6.834;2023-04-16T08:06:31;64.45;;;43.30;;
57025;SDS011;43961;52.940;6.834;2023-04-16T08:08:56;77.07;;;48.10;;
57025;SDS011;43961;52.940;6.834;2023-04-16T08:11:22;73.93;;;42.80;;
57025;SDS011;43961;52.940;6.834;2023-04-16T08:13:48;70.43;;;46.35;;
57025;SDS011;43961;52.940;6.834;2023-04-16T08:16:14;66.70;;;41.40;;
57025;SDS011;43961;52.940;6.834;2023-04-16T08:18:40;74.45;;;44.70;;
57025;SDS011;43961;52.940;6.834;2023-04-16T08:21:05;58.25;;;38.90;;
57025;SDS011;43961;52.940;6.834;2023-04-16T08:23:31;69.72;;;41.70;;
57025;SDS011;43961;52.940;6.834;2023-04-16T08:25:58;68.13;;;41.42;;
57025;SDS011;43961;52.940;6.834;2023-04-16T08:28:24;61.63;;;40.28;;
57025;SDS011;43961;52.940;6.834;2023-04-16T08:30:50;59.00;;;36.40;;
57025;SDS011;43961;52.940;6.834;2023-04-16T08:33:15;69.40;;;40.55;;
57025;SDS011;43961;52.940;6.834;2023-04-16T08:35:41;68.18;;;39.75;;
57025;SDS011;43961;52.940;6.834;2023-04-16T08:38:07;69.70;;;39.42;;
57025;SDS011;43961;52.940;6.834;2023-04-16T08:40:34;72.93;;;38.28;;
57025;SDS011;43961;52.940;6.834;2023-04-16T08:43:04;66.32;;;39.95;;
57025;SDS011;43961;52.940;6.834;2023-04-16T08:45:34;68.97;;;39.63;;
57025;SDS011;43961;52.940;6.834;2023-04-16T08:48:01;60.13;;;35.85;;
57025;SDS011;43961;52.940;6.834;2023-04-16T08:50:29;58.78;;;37.75;;
57025;SDS011;43961;52.940;6.834;2023-04-16T08:52:59;50.95;;;35.80;;
57025;SDS011;43961;52.940;6.834;2023-04-16T08:55:35;54.80;;;33.80;;
57025;SDS011;43961;52.940;6.834;2023-04-16T08:58:07;60.00;;;36.08;;
57025;SDS011;43961;52.940;6.834;2023-04-16T09:00:36;50.03;;;35.05;;
57025;SDS011;43961;52.940;6.834;2023-04-16T09:03:03;65.60;;;35.03;;
57025;SDS011;43961;52.940;6.834;2023-04-16T09:05:29;51.20;;;34.28;;
57025;SDS011;43961;52.940;6.834;2023-04-16T09:07:56;44.45;;;32.30;;
57025;SDS011;43961;52.940;6.834;2023-04-16T09:10:22;44.80;;;32.97;;
57025;SDS011;43961;52.940;6.834;2023-04-16T09:12:50;52.45;;;33.65;;
57025;SDS011;43961;52.940;6.834;2023-04-16T09:15:16;58.05;;;33.83;;
57025;SDS011;43961;52.940;6.834;2023-04-16T09:20:10;52.92;;;32.70;;
57025;SDS011;43961;52.940;6.834;2023-04-16T09:22:36;50.40;;;32.92;;
57025;SDS011;43961;52.940;6.834;2023-04-16T09:25:04;54.05;;;32.00;;
57025;SDS011;43961;52.940;6.834;2023-04-16T09:27:30;48.35;;;32.20;;
57025;SDS011;43961;52.940;6.834;2023-04-16T09:29:56;42.80;;;30.67;;
57025;SDS011;43961;52.940;6.834;2023-04-16T09:32:27;49.20;;;30.95;;
57025;SDS011;43961;52.940;6.834;2023-04-16T09:34:56;40.22;;;29.80;;
57025;SDS011;43961;52.940;6.834;2023-04-16T09:37:27;47.78;;;30.10;;
57025;SDS011;43961;52.940;6.834;2023-04-16T09:39:54;43.95;;;30.20;;
57025;SDS011;43961;52.940;6.834;2023-04-16T09:42:26;41.22;;;28.17;;
57025;SDS011;43961;52.940;6.834;2023-04-16T09:44:53;41.78;;;29.58;;
57025;SDS011;43961;52.940;6.834;2023-04-16T09:47:19;48.53;;;29.55;;
57025;SDS011;43961;52.940;6.834;2023-04-16T09:49:46;43.08;;;29.42;;
57025;SDS011;43961;52.940;6.834;2023-04-16T09:52:12;47.05;;;29.45;;
57025;SDS011;43961;52.940;6.834;2023-04-16T09:54:48;38.38;;;28.40;;
57025;SDS011;43961;52.940;6.834;2023-04-16T09:57:22;43.47;;;29.52;;
57025;SDS011;43961;52.940;6.834;2023-04-16T09:59:52;47.38;;;30.20;;
57025;SDS011;43961;52.940;6.834;2023-04-16T10:02:19;45.47;;;29.75;;
57025;SDS011;43961;52.940;6.834;2023-04-16T10:04:51;50.58;;;28.83;;
57025;SDS011;43961;52.940;6.834;2023-04-16T10:07:18;43.55;;;28.92;;
57025;SDS011;43961;52.940;6.834;2023-04-16T10:09:45;42.42;;;30.15;;
57025;SDS011;43961;52.940;6.834;2023-04-16T10:12:14;41.13;;;29.13;;
57025;SDS011;43961;52.940;6.834;2023-04-16T10:14:40;42.30;;;29.08;;
57025;SDS011;43961;52.940;6.834;2023-04-16T10:17:07;49.83;;;31.17;;
57025;SDS011;43961;52.940;6.834;2023-04-16T10:19:33;50.10;;;31.23;;
57025;SDS011;43961;52.940;6.834;2023-04-16T10:22:00;48.78;;;30.17;;
57025;SDS011;43961;52.940;6.834;2023-04-16T10:24:30;38.05;;;28.50;;
57025;SDS011;43961;52.940;6.834;2023-04-16T10:26:57;45.40;;;30.17;;
57025;SDS011;43961;52.940;6.834;2023-04-16T10:29:24;39.92;;;29.00;;
57025;SDS011;43961;52.940;6.834;2023-04-16T10:31:56;41.42;;;31.33;;
57025;SDS011;43961;52.940;6.834;2023-04-16T10:34:23;45.67;;;31.95;;
57025;SDS011;43961;52.940;6.834;2023-04-16T10:36:50;40.85;;;28.33;;
57025;SDS011;43961;52.940;6.834;2023-04-16T10:39:18;50.15;;;31.33;;
57025;SDS011;43961;52.940;6.834;2023-04-16T10:41:45;43.33;;;29.67;;
57025;SDS011;43961;52.940;6.834;2023-04-16T10:44:11;52.35;;;31.15;;
57025;SDS011;43961;52.940;6.834;2023-04-16T10:46:41;40.67;;;29.73;;
57025;SDS011;43961;52.940;6.834;2023-04-16T10:49:26;38.63;;;29.48;;
57025;SDS011;43961;52.940;6.834;2023-04-16T10:56:45;41.35;;;29.63;;
57025;SDS011;43961;52.940;6.834;2023-04-16T10:59:12;50.60;;;30.65;;
57025;SDS011;43961;52.940;6.834;2023-04-16T11:01:42;34.80;;;29.17;;
57025;SDS011;43961;52.940;6.834;2023-04-16T11:09:43;36.83;;;30.63;;
57025;SDS011;43961;52.940;6.834;2023-04-16T11:12:14;42.45;;;28.85;;
57025;SDS011;43961;52.940;6.834;2023-04-16T11:14:43;35.28;;;27.92;;
57025;SDS011;43961;52.940;6.834;2023-04-16T11:17:18;41.95;;;29.45;;
57025;SDS011;43961;52.940;6.834;2023-04-16T11:19:45;36.15;;;28.13;;
57025;SDS011;43961;52.940;6.834;2023-04-16T11:22:14;35.78;;;28.80;;
57025;SDS011;43961;52.940;6.834;2023-04-16T11:24:45;37.42;;;28.48;;
57025;SDS011;43961;52.940;6.834;2023-04-16T11:27:12;35.17;;;30.20;;
57025;SDS011;43961;52.940;6.834;2023-04-16T11:29:39;40.28;;;32.40;;
57025;SDS011;43961;52.940;6.834;2023-04-16T11:32:05;44.85;;;32.33;;
57025;SDS011;43961;52.940;6.834;2023-04-16T11:34:31;37.45;;;28.67;;
57025;SDS011;43961;52.940;6.834;2023-04-16T11:36:57;40.88;;;29.88;;
57025;SDS011;43961;52.940;6.834;2023-04-16T11:39:24;50.10;;;30.85;;
57025;SDS011;43961;52.940;6.834;2023-04-16T11:41:51;41.25;;;29.67;;
57025;SDS011;43961;52.940;6.834;2023-04-16T11:46:47;31.38;;;26.00;;
57025;SDS011;43961;52.940;6.834;2023-04-16T11:49:13;39.17;;;28.95;;
57025;SDS011;43961;52.940;6.834;2023-04-16T11:51:42;33.75;;;27.70;;
57025;SDS011;43961;52.940;6.834;2023-04-16T11:54:17;33.08;;;26.17;;
57025;SDS011;43961;52.940;6.834;2023-04-16T11:56:44;35.28;;;28.92;;
57025;SDS011;43961;52.940;6.834;2023-04-16T11:59:12;35.55;;;27.25;;
57025;SDS011;43961;52.940;6.834;2023-04-16T12:01:52;35.88;;;27.00;;
57025;SDS011;43961;52.940;6.834;2023-04-16T12:04:25;34.33;;;29.15;;
57025;SDS011;43961;52.940;6.834;2023-04-16T12:07:04;41.90;;;26.80;;
57025;SDS011;43961;52.940;6.834;2023-04-16T12:09:32;35.65;;;26.40;;
57025;SDS011;43961;52.940;6.834;2023-04-16T12:12:01;42.22;;;26.73;;
57025;SDS011;43961;52.940;6.834;2023-04-16T12:14:29;35.47;;;27.20;;
57025;SDS011;43961;52.940;6.834;2023-04-16T12:16:56;37.63;;;29.25;;
57025;SDS011;43961;52.940;6.834;2023-04-16T12:19:51;46.38;;;24.60;;
57025;SDS011;43961;52.940;6.834;2023-04-16T12:22:31;31.20;;;25.92;;
57025;SDS011;43961;52.940;6.834;2023-04-16T12:25:01;40.28;;;28.48;;
57025;SDS011;43961;52.940;6.834;2023-04-16T12:27:47;41.42;;;27.88;;
57025;SDS011;43961;52.940;6.834;2023-04-16T12:30:17;39.10;;;26.40;;
57025;SDS011;43961;52.940;6.834;2023-04-16T12:32:46;48.72;;;28.50;;
57025;SDS011;43961;52.940;6.834;2023-04-16T12:35:33;39.88;;;26.35;;
57025;SDS011;43961;52.940;6.834;2023-04-16T12:37:59;41.42;;;28.23;;
57025;SDS011;43961;52.940;6.834;2023-04-16T12:40:25;43.63;;;27.20;;
57025;SDS011;43961;52.940;6.834;2023-04-16T12:42:51;39.75;;;27.45;;
57025;SDS011;43961;52.940;6.834;2023-04-16T12:45:16;48.65;;;29.45;;
57025;SDS011;43961;52.940;6.834;2023-04-16T12:47:42;35.63;;;26.55;;
57025;SDS011;43961;52.940;6.834;2023-04-16T12:50:08;35.75;;;25.45;;
57025;SDS011;43961;52.940;6.834;2023-04-16T12:52:34;40.20;;;25.70;;
57025;SDS011;43961;52.940;6.834;2023-04-16T12:55:00;34.15;;;25.25;;
57025;SDS011;43961;52.940;6.834;2023-04-16T12:57:26;48.38;;;26.83;;
57025;SDS011;43961;52.940;6.834;2023-04-16T12:59:56;33.70;;;25.17;;
57025;SDS011;43961;52.940;6.834;2023-04-16T13:02:22;40.25;;;26.80;;
57025;SDS011;43961;52.940;6.834;2023-04-16T13:04:49;39.63;;;26.92;;
57025;SDS011;43961;52.940;6.834;2023-04-16T13:07:16;59.95;;;25.70;;
57025;SDS011;43961;52.940;6.834;2023-04-16T13:09:42;35.75;;;24.88;;
57025;SDS011;43961;52.940;6.834;2023-04-16T13:12:08;40.65;;;28.08;;
57025;SDS011;43961;52.940;6.834;2023-04-16T13:14:34;45.92;;;27.77;;
57025;SDS011;43961;52.940;6.834;2023-04-16T13:17:01;33.22;;;25.45;;
57025;SDS011;43961;52.940;6.834;2023-04-16T13:19:28;40.33;;;26.85;;
57025;SDS011;43961;52.940;6.834;2023-04-16T13:21:54;37.58;;;27.02;;
57025;SDS011;43961;52.940;6.834;2023-04-16T13:24:19;50.72;;;28.52;;
57025;SDS011;43961;52.940;6.834;2023-04-16T13:26:45;41.63;;;27.73;;
57025;SDS011;43961;52.940;6.834;2023-04-16T13:29:11;51.20;;;27.55;;
57025;SDS011;43961;52.940;6.834;2023-04-16T13:31:36;47.97;;;27.63;;
57025;SDS011;43961;52.940;6.834;2023-04-16T13:34:02;36.72;;;28.15;;
57025;SDS011;43961;52.940;6.834;2023-04-16T13:36:29;41.65;;;30.17;;
57025;SDS011;43961;52.940;6.834;2023-04-16T13:38:56;39.25;;;28.80;;
57025;SDS011;43961;52.940;6.834;2023-04-16T13:41:22;46.70;;;29.83;;
57025;SDS011;43961;52.940;6.834;2023-04-16T13:43:48;51.85;;;30.45;;
57025;SDS011;43961;52.940;6.834;2023-04-16T13:46:14;36.53;;;26.48;;
57025;SDS011;43961;52.940;6.834;2023-04-16T13:48:39;43.80;;;30.77;;
57025;SDS011;43961;52.940;6.834;2023-04-16T13:51:05;42.72;;;30.13;;
57025;SDS011;43961;52.940;6.834;2023-04-16T13:53:32;40.95;;;28.63;;
57025;SDS011;43961;52.940;6.834;2023-04-16T13:55:58;46.80;;;33.28;;
57025;SDS011;43961;52.940;6.834;2023-04-16T13:58:24;48.92;;;29.95;;
57025;SDS011;43961;52.940;6.834;2023-04-16T14:00:51;64.47;;;28.85;;
57025;SDS011;43961;52.940;6.834;2023-04-16T14:03:17;50.92;;;29.92;;
57025;SDS011;43961;52.940;6.834;2023-04-16T14:05:42;40.58;;;30.58;;
57025;SDS011;43961;52.940;6.834;2023-04-16T14:08:09;45.97;;;30.80;;
57025;SDS011;43961;52.940;6.834;2023-04-16T14:10:35;58.92;;;31.02;;
57025;SDS011;43961;52.940;6.834;2023-04-16T14:13:00;45.50;;;31.50;;
57025;SDS011;43961;52.940;6.834;2023-04-16T14:15:26;57.28;;;32.67;;
57025;SDS011;43961;52.940;6.834;2023-04-16T14:17:54;51.00;;;31.60;;
57025;SDS011;43961;52.940;6.834;2023-04-16T14:20:20;48.75;;;31.48;;
57025;SDS011;43961;52.940;6.834;2023-04-16T14:22:45;46.58;;;31.38;;
57025;SDS011;43961;52.940;6.834;2023-04-16T14:25:12;41.28;;;30.00;;
57025;SDS011;43961;52.940;6.834;2023-04-16T14:27:38;39.75;;;29.33;;
57025;SDS011;43961;52.940;6.834;2023-04-16T14:30:05;40.40;;;29.57;;
57025;SDS011;43961;52.940;6.834;2023-04-16T14:32:31;53.45;;;32.67;;